createdAt,value
2017-07-12T00:02:57.798Z,0
2017-07-12T00:03:42.919Z,0
2017-07-12T00:04:43.248Z,0
2017-07-12T00:06:58.210Z,0
2017-07-12T00:07:43.330Z,0
2017-07-12T00:08:43.647Z,0
2017-07-12T00:09:58.291Z,0
2017-07-12T00:10:43.404Z,0
2017-07-12T00:12:43.776Z,0
2017-07-12T00:13:43.485Z,0
2017-07-12T00:14:58.439Z,0
2017-07-12T00:15:43.522Z,0
2017-07-12T00:16:58.158Z,0
2017-07-12T00:17:58.494Z,0
2017-07-12T00:18:43.267Z,0
2017-07-12T00:19:43.642Z,0
2017-07-12T00:20:43.642Z,0
2017-07-12T00:21:44.012Z,0
2017-07-12T00:22:42.740Z,0
2017-07-12T00:23:58.642Z,0
2017-07-12T00:24:43.733Z,0
2017-07-12T00:25:44.094Z,0
2017-07-12T00:26:43.811Z,0
2017-07-12T00:28:43.885Z,0
2017-07-12T00:29:44.245Z,0
2017-07-12T00:30:58.498Z,0
2017-07-12T00:31:44.236Z,0
2017-07-12T00:32:44.271Z,0
2017-07-12T00:33:44.310Z,0
2017-07-12T00:36:58.663Z,0
2017-07-12T00:37:44.073Z,0
2017-07-12T00:38:44.107Z,0
2017-07-12T00:39:44.128Z,0
2017-07-12T00:40:59.057Z,0
2017-07-12T00:41:44.174Z,0
2017-07-12T00:42:58.816Z,0
2017-07-12T00:43:43.912Z,0
2017-07-12T00:44:59.470Z,0
2017-07-12T00:45:59.192Z,0
2017-07-12T00:46:44.614Z,0
2017-07-12T00:47:58.914Z,0
2017-07-12T00:48:44.332Z,0
2017-07-12T00:49:59.303Z,0
2017-07-12T00:50:44.375Z,0
2017-07-12T00:51:59.364Z,0
2017-07-12T00:52:44.820Z,0
2017-07-12T00:53:44.476Z,0
2017-07-12T00:54:44.830Z,0
2017-07-12T00:56:44.864Z,0
2017-07-12T00:57:59.189Z,0
2017-07-12T00:58:44.914Z,0
2017-07-12T00:59:59.221Z,0
2017-07-12T01:00:44.974Z,0
2017-07-12T01:01:44.997Z,0
2017-07-12T01:02:45.033Z,0
2017-07-12T01:03:44.722Z,0
2017-07-12T01:04:59.666Z,0
2017-07-12T01:05:59.710Z,0
2017-07-12T01:06:45.126Z,0
2017-07-12T01:07:45.126Z,0
2017-07-12T01:08:45.185Z,0
2017-07-12T01:09:45.211Z,0
2017-07-12T01:10:45.216Z,0
2017-07-12T01:11:45.236Z,0
2017-07-12T01:12:45.268Z,0
2017-07-12T01:13:44.986Z,0
2017-07-12T01:14:45.309Z,0
2017-07-12T01:16:45.354Z,0
2017-07-12T01:17:45.401Z,0
2017-07-12T01:18:59.696Z,0
2017-07-12T01:20:45.152Z,0
2017-07-12T01:22:00.119Z,0
2017-07-12T01:22:44.236Z,0
2017-07-12T01:23:59.827Z,0
2017-07-12T01:24:44.908Z,0
2017-07-12T01:25:45.614Z,0
2017-07-12T01:26:45.311Z,0
2017-07-12T01:27:45.311Z,0
2017-07-12T01:29:14.539Z,0
2017-07-12T01:29:45.677Z,0
2017-07-12T01:30:45.399Z,0
2017-07-12T01:32:45.466Z,0
2017-07-12T01:33:45.158Z,0
2017-07-12T01:34:45.803Z,0
2017-07-12T01:35:45.503Z,0
2017-07-12T01:36:45.226Z,0
2017-07-12T01:38:00.483Z,0
2017-07-12T01:38:45.568Z,0
2017-07-12T01:39:45.953Z,0
2017-07-12T01:41:46.002Z,0
2017-07-12T01:42:45.978Z,0
2017-07-12T01:43:46.059Z,0
2017-07-12T01:45:00.649Z,0
2017-07-12T01:46:00.362Z,0
2017-07-12T01:47:00.709Z,0
2017-07-12T01:47:46.131Z,0
2017-07-12T01:48:46.131Z,0
2017-07-12T01:49:46.187Z,0
2017-07-12T01:50:46.222Z,0
2017-07-12T01:51:45.910Z,0
2017-07-12T01:53:15.442Z,0
2017-07-12T01:53:45.934Z,0
2017-07-12T01:54:46.311Z,0
2017-07-12T01:55:46.318Z,0
2017-07-12T01:57:00.969Z,0
2017-07-12T01:57:46.067Z,0
2017-07-12T01:58:46.410Z,0
2017-07-12T02:00:46.125Z,0
2017-07-12T02:01:46.487Z,0
2017-07-12T02:02:46.493Z,0
2017-07-12T02:03:46.543Z,0
2017-07-12T02:04:46.538Z,0
2017-07-12T02:05:46.589Z,0
2017-07-12T02:06:46.587Z,0
2017-07-12T02:07:46.639Z,0
2017-07-12T02:08:46.629Z,0
2017-07-12T02:09:46.698Z,0
2017-07-12T02:10:46.397Z,0
2017-07-12T02:11:46.410Z,0
2017-07-12T02:13:15.680Z,0
2017-07-12T02:13:46.767Z,0
2017-07-12T02:15:01.385Z,0
2017-07-12T02:15:46.827Z,0
2017-07-12T02:17:01.468Z,0
2017-07-12T02:17:46.858Z,0
2017-07-12T02:18:46.909Z,0
2017-07-12T02:20:01.513Z,0
2017-07-12T02:20:46.645Z,0
2017-07-12T02:21:46.947Z,0
2017-07-12T02:22:46.055Z,0
2017-07-12T02:23:46.682Z,0
2017-07-12T02:25:01.690Z,0
2017-07-12T02:25:46.757Z,0
2017-07-12T02:27:46.491Z,0
2017-07-12T02:28:47.153Z,0
2017-07-12T02:29:47.168Z,0
2017-07-12T02:31:01.474Z,0
2017-07-12T02:31:47.204Z,0
2017-07-12T02:32:46.924Z,0
2017-07-12T02:34:46.963Z,0
2017-07-12T02:35:47.317Z,0
2017-07-12T02:36:47.034Z,0
2017-07-12T02:38:47.379Z,0
2017-07-12T02:39:47.106Z,0
2017-07-12T02:41:01.077Z,0
2017-07-12T02:42:01.744Z,0
2017-07-12T02:43:16.669Z,0
2017-07-12T02:43:47.219Z,0
2017-07-12T02:44:47.207Z,0
2017-07-12T02:45:47.571Z,0
2017-07-12T02:46:47.617Z,0
2017-07-12T02:47:47.301Z,0
2017-07-12T02:49:01.921Z,0
2017-07-12T02:50:02.251Z,0
2017-07-12T02:50:47.686Z,0
2017-07-12T02:51:47.746Z,0
2017-07-12T02:52:47.735Z,0
2017-07-12T02:53:47.113Z,0
2017-07-12T02:54:47.793Z,5
2017-07-12T02:55:47.492Z,5
2017-07-12T02:57:02.097Z,5
2017-07-12T02:58:47.854Z,5
2017-07-12T02:59:47.596Z,5
2017-07-12T03:00:47.918Z,5
2017-07-12T03:02:02.236Z,5
2017-07-12T03:02:46.702Z,5
2017-07-12T03:03:47.688Z,5
2017-07-12T03:04:47.361Z,5
2017-07-12T03:05:46.764Z,5
2017-07-12T03:07:02.340Z,10
2017-07-12T03:08:02.378Z,10
2017-07-12T03:09:02.405Z,10
2017-07-12T03:10:02.739Z,10
2017-07-12T03:10:48.171Z,10
2017-07-12T03:11:48.199Z,15
2017-07-12T03:13:02.496Z,15
2017-07-12T03:13:48.225Z,15
2017-07-12T03:15:48.278Z,15
2017-07-12T03:16:48.311Z,20
2017-07-12T03:17:48.317Z,20
2017-07-12T03:18:48.375Z,20
2017-07-12T03:19:48.377Z,20
2017-07-12T03:20:48.406Z,20
2017-07-12T03:21:48.417Z,25
2017-07-12T03:22:47.504Z,25
2017-07-12T03:23:48.476Z,25
2017-07-12T03:25:48.230Z,25
2017-07-12T03:26:48.545Z,25
2017-07-12T03:28:03.190Z,30
2017-07-12T03:28:48.272Z,30
2017-07-12T03:30:03.230Z,30
2017-07-12T03:30:48.667Z,30
2017-07-12T03:31:48.663Z,30
2017-07-12T03:32:48.406Z,30
2017-07-12T03:34:03.318Z,30
2017-07-12T03:34:48.460Z,30
2017-07-12T03:36:17.334Z,30
2017-07-12T03:36:48.536Z,30
2017-07-12T03:37:48.817Z,30
2017-07-12T03:38:48.858Z,35
2017-07-12T03:40:03.452Z,35
2017-07-12T03:40:48.901Z,40
2017-07-12T03:41:48.921Z,40
2017-07-12T03:42:48.952Z,40
2017-07-12T03:43:48.970Z,40
2017-07-12T03:44:49.006Z,40
2017-07-12T03:46:18.204Z,40
2017-07-12T03:46:49.036Z,40
2017-07-12T03:47:49.087Z,40
2017-07-12T03:49:03.697Z,45
2017-07-12T03:49:49.131Z,50
2017-07-12T03:50:48.822Z,55
2017-07-12T03:52:03.782Z,65
2017-07-12T03:52:49.188Z,70
2017-07-12T03:53:49.198Z,75
2017-07-12T03:54:48.618Z,80
2017-07-12T03:55:49.269Z,85
2017-07-12T03:56:49.621Z,90
2017-07-12T03:57:49.296Z,90
2017-07-12T03:58:49.033Z,90
2017-07-12T04:00:03.946Z,90
2017-07-12T04:00:49.073Z,90
2017-07-12T04:01:49.400Z,95
2017-07-12T04:02:49.448Z,105
2017-07-12T04:04:03.418Z,105
2017-07-12T04:04:49.498Z,95
2017-07-12T04:05:49.528Z,100
2017-07-12T04:06:49.551Z,110
2017-07-12T04:07:49.559Z,105
2017-07-12T04:09:04.189Z,105
2017-07-12T04:10:04.202Z,105
2017-07-12T04:10:49.612Z,110
2017-07-12T04:11:49.656Z,110
2017-07-12T04:12:49.686Z,115
2017-07-12T04:13:49.719Z,125
2017-07-12T04:14:49.718Z,140
2017-07-12T04:16:04.039Z,170
2017-07-12T04:16:49.760Z,255
2017-07-12T04:17:49.818Z,415
2017-07-12T04:18:48.865Z,510
2017-07-12T04:19:49.546Z,530
2017-07-12T04:21:49.905Z,535
2017-07-12T04:22:48.968Z,395
2017-07-12T04:23:49.920Z,260
2017-07-12T04:24:49.970Z,260
2017-07-12T04:26:04.282Z,190
2017-07-12T04:27:04.642Z,180
2017-07-12T04:27:50.060Z,190
2017-07-12T04:28:49.769Z,180
2017-07-12T04:29:50.084Z,160
2017-07-12T04:30:50.136Z,195
2017-07-12T04:32:04.425Z,345
2017-07-12T04:32:50.162Z,475
2017-07-12T04:34:04.171Z,635
2017-07-12T04:34:50.258Z,670
2017-07-12T04:35:49.922Z,660
2017-07-12T04:36:49.354Z,610
2017-07-12T04:37:49.362Z,630
2017-07-12T04:38:50.405Z,690
2017-07-12T04:39:50.037Z,715
2017-07-12T04:40:50.377Z,725
2017-07-12T04:41:49.789Z,730
2017-07-12T04:43:04.735Z,635
2017-07-12T04:43:50.496Z,665
2017-07-12T04:44:50.492Z,635
2017-07-12T04:45:50.224Z,655
2017-07-12T04:47:05.149Z,685
2017-07-12T04:48:50.309Z,725
2017-07-12T04:49:50.638Z,770
2017-07-12T04:50:50.385Z,850
2017-07-12T04:51:50.759Z,930
2017-07-12T04:52:50.747Z,930
2017-07-12T04:53:50.743Z,905
2017-07-12T04:55:50.506Z,945
2017-07-12T04:56:50.855Z,940
2017-07-12T04:57:50.865Z,945
2017-07-12T04:58:50.605Z,515
2017-07-12T04:59:50.951Z,300
2017-07-12T05:00:50.341Z,320
2017-07-12T05:01:50.990Z,350
2017-07-12T05:03:05.327Z,580
2017-07-12T05:05:05.688Z,530
2017-07-12T05:05:51.148Z,455
2017-07-12T05:06:51.170Z,330
2017-07-12T05:07:51.198Z,315
2017-07-12T05:08:50.891Z,285
2017-07-12T05:10:51.283Z,245
2017-07-12T05:11:50.996Z,245
2017-07-12T05:12:51.328Z,260
2017-07-12T05:13:51.409Z,310
2017-07-12T05:14:51.402Z,325
2017-07-12T05:16:05.720Z,410
2017-07-12T05:17:05.748Z,380
2017-07-12T05:17:51.468Z,405
2017-07-12T05:18:50.900Z,425
2017-07-12T05:19:51.539Z,420
2017-07-12T05:21:05.872Z,600
2017-07-12T05:21:51.291Z,440
2017-07-12T05:23:05.922Z,595
2017-07-12T05:24:06.253Z,815
2017-07-12T05:24:51.690Z,1140
2017-07-12T05:25:51.414Z,985
2017-07-12T05:27:05.724Z,800
2017-07-12T05:27:51.448Z,485
2017-07-12T05:29:51.845Z,385
2017-07-12T05:30:51.251Z,845
2017-07-12T05:31:51.910Z,500
2017-07-12T05:32:51.611Z,430
2017-07-12T05:34:06.562Z,540
2017-07-12T05:35:06.268Z,480
2017-07-12T05:35:52.034Z,700
2017-07-12T05:36:52.055Z,770
2017-07-12T05:37:52.121Z,495
2017-07-12T05:38:52.140Z,850
2017-07-12T05:39:52.177Z,455
2017-07-12T05:41:51.577Z,395
2017-07-12T05:43:06.864Z,425
2017-07-12T05:43:51.319Z,390
2017-07-12T05:44:52.056Z,420
2017-07-12T05:45:52.348Z,810
2017-07-12T05:46:52.069Z,375
2017-07-12T05:47:52.061Z,425
2017-07-12T05:49:06.394Z,915
2017-07-12T05:49:52.474Z,400
2017-07-12T05:51:07.090Z,700
2017-07-12T05:51:52.534Z,1220
2017-07-12T05:52:52.583Z,880
2017-07-12T05:53:52.261Z,1255
2017-07-12T05:54:52.314Z,1230
2017-07-12T05:56:06.942Z,1275
2017-07-12T05:57:07.297Z,1285
2017-07-12T05:57:52.410Z,1045
2017-07-12T05:59:06.706Z,1225
2017-07-12T05:59:52.801Z,1255
2017-07-12T06:01:52.235Z,1280
2017-07-12T06:02:52.882Z,1300
2017-07-12T06:03:52.610Z,1065
2017-07-12T06:04:52.633Z,1350
2017-07-12T06:06:07.602Z,525
2017-07-12T06:07:07.301Z,540
2017-07-12T06:08:07.684Z,585
2017-07-12T06:08:52.768Z,690
2017-07-12T06:09:53.117Z,625
2017-07-12T06:10:53.151Z,535
2017-07-12T06:11:53.205Z,465
2017-07-12T06:12:52.924Z,510
2017-07-12T06:13:53.275Z,455
2017-07-12T06:14:53.300Z,535
2017-07-12T06:15:53.015Z,420
2017-07-12T06:16:53.394Z,350
2017-07-12T06:17:53.406Z,305
2017-07-12T06:18:53.442Z,265
2017-07-12T06:19:53.485Z,240
2017-07-12T06:20:53.497Z,215
2017-07-12T06:23:07.867Z,185
2017-07-12T06:23:53.283Z,175
2017-07-12T06:25:07.938Z,165
2017-07-12T06:26:07.943Z,155
2017-07-12T06:27:07.992Z,150
2017-07-12T06:27:53.748Z,145
2017-07-12T06:28:53.775Z,135
2017-07-12T06:29:53.868Z,130
2017-07-12T06:30:53.839Z,125
2017-07-12T06:32:08.465Z,120
2017-07-12T06:33:08.161Z,120
2017-07-12T06:33:53.287Z,120
2017-07-12T06:34:53.938Z,120
2017-07-12T06:35:54.010Z,120
2017-07-12T06:37:08.306Z,125
2017-07-12T06:38:08.646Z,130
2017-07-12T06:38:53.779Z,135
2017-07-12T06:39:54.118Z,140
2017-07-12T06:41:08.421Z,150
2017-07-12T06:41:54.166Z,155
2017-07-12T06:42:54.215Z,160
2017-07-12T06:43:54.246Z,165
2017-07-12T06:45:08.847Z,175
2017-07-12T06:45:54.278Z,175
2017-07-12T06:46:54.017Z,185
2017-07-12T06:47:54.332Z,185
2017-07-12T06:48:54.383Z,195
2017-07-12T06:50:08.990Z,210
2017-07-12T06:50:54.442Z,215
2017-07-12T06:51:54.485Z,225
2017-07-12T06:52:53.883Z,240
2017-07-12T06:53:54.210Z,255
2017-07-12T06:54:54.535Z,265
2017-07-12T06:55:54.252Z,290
2017-07-12T06:56:54.296Z,410
2017-07-12T06:58:09.251Z,320
2017-07-12T06:59:54.395Z,505
2017-07-12T07:01:09.008Z,420
2017-07-12T07:01:54.757Z,470
2017-07-12T07:03:09.400Z,435
2017-07-12T07:03:54.799Z,460
2017-07-12T07:05:09.463Z,570
2017-07-12T07:05:54.563Z,700
2017-07-12T07:07:09.524Z,1160
2017-07-12T07:07:54.951Z,650
2017-07-12T07:09:09.563Z,940
2017-07-12T07:10:09.596Z,1120
2017-07-12T07:10:55.021Z,680
2017-07-12T07:11:55.083Z,805
2017-07-12T07:13:55.143Z,650
2017-07-12T07:14:55.159Z,635
2017-07-12T07:15:55.172Z,590
2017-07-12T07:16:55.229Z,530
2017-07-12T07:18:55.290Z,575
2017-07-12T07:19:54.684Z,595
2017-07-12T07:20:55.348Z,595
2017-07-12T07:21:55.390Z,580
2017-07-12T07:22:54.788Z,800
2017-07-12T07:23:55.363Z,770
2017-07-12T07:25:09.771Z,730
2017-07-12T07:26:09.807Z,600
2017-07-12T07:27:09.835Z,880
2017-07-12T07:27:55.254Z,885
2017-07-12T07:28:55.315Z,915
2017-07-12T07:29:55.334Z,935
2017-07-12T07:30:55.386Z,860
2017-07-12T07:31:55.401Z,1140
2017-07-12T07:32:55.760Z,1400
2017-07-12T07:33:55.791Z,1460
2017-07-12T07:35:09.799Z,895
2017-07-12T07:36:55.879Z,370
2017-07-12T07:37:55.950Z,300
2017-07-12T07:38:55.649Z,295
2017-07-12T07:40:10.620Z,480
2017-07-12T07:41:10.646Z,470
2017-07-12T07:42:10.692Z,505
2017-07-12T07:42:56.106Z,1070
2017-07-12T07:43:55.529Z,645
2017-07-12T07:44:56.189Z,705
2017-07-12T07:45:56.226Z,825
2017-07-12T07:46:55.620Z,495
2017-07-12T07:47:55.984Z,715
2017-07-12T07:48:56.021Z,915
2017-07-12T07:49:56.431Z,690
2017-07-12T07:51:56.093Z,560
2017-07-12T07:52:56.545Z,700
2017-07-12T07:53:56.505Z,475
2017-07-12T07:54:56.538Z,445
2017-07-12T07:56:11.185Z,485
2017-07-12T07:58:11.240Z,795
2017-07-12T07:58:56.363Z,775
2017-07-12T07:59:56.700Z,830
2017-07-12T08:00:56.740Z,875
2017-07-12T08:01:56.783Z,880
2017-07-12T08:03:11.471Z,725
2017-07-12T08:03:56.859Z,765
2017-07-12T08:04:56.906Z,715
2017-07-12T08:05:56.613Z,790
2017-07-12T08:06:56.966Z,785
2017-07-12T08:07:56.676Z,830
2017-07-12T08:08:57.031Z,865
2017-07-12T08:10:56.156Z,645
2017-07-12T08:13:26.375Z,525
2017-07-12T08:14:11.507Z,540
2017-07-12T08:14:56.586Z,770
2017-07-12T08:16:11.564Z,745
2017-07-12T08:16:57.002Z,815
2017-07-12T08:17:57.360Z,565
2017-07-12T08:18:56.412Z,710
2017-07-12T08:19:57.101Z,605
2017-07-12T08:21:12.063Z,515
2017-07-12T08:22:12.093Z,420
2017-07-12T08:22:57.220Z,430
2017-07-12T08:24:57.593Z,410
2017-07-12T08:26:12.230Z,395
2017-07-12T08:27:11.927Z,345
2017-07-12T08:27:57.396Z,325
2017-07-12T08:28:57.723Z,310
2017-07-12T08:29:57.149Z,295
2017-07-12T08:30:57.785Z,295
2017-07-12T08:32:12.200Z,290
2017-07-12T08:32:57.233Z,320
2017-07-12T08:33:57.906Z,505
2017-07-12T08:34:57.623Z,525
2017-07-12T08:35:57.972Z,425
2017-07-12T08:36:58.024Z,450
2017-07-12T08:37:58.056Z,650
2017-07-12T08:38:58.137Z,605
2017-07-12T08:39:57.818Z,555
2017-07-12T08:40:58.146Z,500
2017-07-12T08:41:58.191Z,635
2017-07-12T08:42:58.213Z,505
2017-07-12T08:43:57.945Z,600
2017-07-12T08:45:12.877Z,600
2017-07-12T08:45:58.022Z,605
2017-07-12T08:46:58.064Z,605
2017-07-12T08:48:12.988Z,555
2017-07-12T08:48:58.427Z,605
2017-07-12T08:49:58.463Z,600
2017-07-12T08:50:58.512Z,605
2017-07-12T08:51:58.551Z,600
2017-07-12T08:54:13.209Z,575
2017-07-12T08:54:58.638Z,595
2017-07-12T08:55:58.361Z,560
2017-07-12T08:56:58.395Z,565
2017-07-12T08:57:58.457Z,580
2017-07-12T09:00:13.438Z,550
2017-07-12T09:01:13.473Z,570
2017-07-12T09:01:58.583Z,520
2017-07-12T09:02:58.953Z,395
2017-07-12T09:04:13.577Z,450
2017-07-12T09:04:59.011Z,350
2017-07-12T09:05:59.072Z,330
2017-07-12T09:06:59.099Z,315
2017-07-12T09:08:13.413Z,295
2017-07-12T09:08:59.154Z,290
2017-07-12T09:10:13.469Z,285
2017-07-12T09:10:59.246Z,275
2017-07-12T09:12:13.535Z,260
2017-07-12T09:12:59.319Z,260
2017-07-12T09:13:58.357Z,270
2017-07-12T09:14:59.372Z,230
2017-07-12T09:15:59.384Z,220
2017-07-12T09:17:28.645Z,265
2017-07-12T09:17:59.490Z,275
2017-07-12T09:19:13.467Z,380
2017-07-12T09:19:58.913Z,315
2017-07-12T09:20:59.245Z,295
2017-07-12T09:21:59.597Z,300
2017-07-12T09:23:13.919Z,355
2017-07-12T09:23:59.369Z,465
2017-07-12T09:33:14.266Z,300
2017-07-12T09:34:00.025Z,355
2017-07-12T09:34:59.730Z,375
2017-07-12T09:36:00.075Z,335
2017-07-12T09:36:59.791Z,350
2017-07-12T09:39:00.181Z,420
2017-07-12T09:40:00.211Z,425
2017-07-12T09:40:59.952Z,440
2017-07-12T09:41:59.953Z,390
2017-07-12T09:44:00.328Z,345
2017-07-12T09:45:00.399Z,350
2017-07-12T09:46:00.418Z,370
2017-07-12T09:47:00.450Z,370
2017-07-12T09:48:14.434Z,345
2017-07-12T09:49:00.197Z,320
2017-07-12T09:51:00.283Z,285
2017-07-12T09:52:00.614Z,265
2017-07-12T09:53:00.655Z,255
2017-07-12T09:54:14.647Z,230
2017-07-12T09:55:00.394Z,225
2017-07-12T09:56:00.443Z,220
2017-07-12T09:57:00.778Z,230
2017-07-12T09:58:15.428Z,225
2017-07-12T09:59:00.846Z,225
2017-07-12T10:00:00.539Z,230
2017-07-12T10:01:00.918Z,240
2017-07-12T10:02:00.955Z,245
2017-07-12T10:03:00.666Z,240
2017-07-12T10:04:15.603Z,235
2017-07-12T10:06:00.469Z,235
2017-07-12T10:07:01.108Z,235
2017-07-12T10:08:15.762Z,235
2017-07-12T10:09:15.775Z,240
2017-07-12T10:10:00.875Z,245
2017-07-12T10:11:00.919Z,235
2017-07-12T10:13:01.294Z,205
2017-07-12T10:14:01.376Z,200
2017-07-12T10:16:01.417Z,170
2017-07-12T10:17:01.106Z,155
2017-07-12T10:18:01.463Z,145
2017-07-12T10:19:01.502Z,135
2017-07-12T10:20:15.491Z,130
2017-07-12T10:22:01.308Z,130
2017-07-12T10:23:00.992Z,130
2017-07-12T10:24:15.927Z,145
2017-07-12T10:25:01.688Z,150
2017-07-12T10:26:16.319Z,150
2017-07-12T10:27:01.741Z,155
2017-07-12T10:28:01.148Z,165
2017-07-12T10:32:01.576Z,195
2017-07-12T10:33:01.947Z,200
2017-07-12T10:34:01.946Z,205
2017-07-12T10:35:01.370Z,210
2017-07-12T10:36:16.617Z,215
2017-07-12T10:38:01.764Z,225
2017-07-12T10:39:02.108Z,230
2017-07-12T10:40:02.155Z,230
2017-07-12T10:41:16.436Z,235
2017-07-12T10:42:01.577Z,235
2017-07-12T10:43:01.900Z,235
2017-07-12T10:44:02.268Z,235
2017-07-12T10:45:16.887Z,230
2017-07-12T10:47:02.058Z,215
2017-07-12T10:48:02.373Z,210
2017-07-12T10:49:02.111Z,205
2017-07-12T10:50:01.795Z,200
2017-07-12T10:52:17.098Z,195
2017-07-12T10:53:16.830Z,185
2017-07-12T10:54:02.550Z,180
2017-07-12T10:55:02.296Z,165
2017-07-12T10:56:02.297Z,155
2017-07-12T10:57:02.359Z,150
2017-07-12T10:58:01.770Z,140
2017-07-12T10:59:02.414Z,130
2017-07-12T11:00:02.711Z,125
2017-07-12T11:01:02.460Z,120
2017-07-12T11:02:17.084Z,120
2017-07-12T11:03:02.212Z,125
2017-07-12T11:04:02.261Z,130
2017-07-12T11:05:02.571Z,135
2017-07-12T11:06:02.293Z,140
2017-07-12T11:08:17.575Z,150
2017-07-12T11:10:03.055Z,155
2017-07-12T11:11:02.786Z,155
2017-07-12T11:13:03.145Z,150
2017-07-12T11:14:02.818Z,145
2017-07-12T11:15:02.879Z,140
2017-07-12T11:16:03.196Z,135
2017-07-12T11:17:03.256Z,125
2017-07-12T11:18:02.320Z,125
2017-07-12T11:19:03.312Z,130
2017-07-12T11:20:03.004Z,135
2017-07-12T11:21:03.374Z,140
2017-07-12T11:22:03.431Z,145
2017-07-12T11:23:17.067Z,150
2017-07-12T11:24:03.133Z,155
2017-07-12T11:25:17.783Z,155
2017-07-12T11:26:03.180Z,160
2017-07-12T11:27:03.554Z,160
2017-07-12T11:28:03.251Z,160
2017-07-12T11:29:03.295Z,155
2017-07-12T11:30:03.340Z,150
2017-07-12T11:31:03.653Z,140
2017-07-12T11:32:03.374Z,120
2017-07-12T11:33:03.722Z,110
2017-07-12T11:34:18.357Z,100
2017-07-12T11:35:18.355Z,95
2017-07-12T11:37:03.499Z,85
2017-07-12T11:38:03.841Z,80
2017-07-12T11:39:03.577Z,80
2017-07-12T11:40:03.609Z,75
2017-07-12T11:41:03.309Z,75
2017-07-12T11:42:03.650Z,75
2017-07-12T11:43:04.004Z,75
2017-07-12T11:44:04.322Z,75
2017-07-12T11:45:04.086Z,75
2017-07-12T11:46:03.767Z,75
2017-07-12T11:47:03.787Z,75
2017-07-12T11:48:03.837Z,70
2017-07-12T11:49:03.528Z,70
2017-07-12T11:51:03.973Z,65
2017-07-12T11:52:03.629Z,60
2017-07-12T11:53:18.883Z,55
2017-07-12T11:54:04.303Z,55
2017-07-12T11:55:18.638Z,55
2017-07-12T11:56:04.038Z,55
2017-07-12T11:57:04.107Z,50
2017-07-12T11:58:04.111Z,45
2017-07-12T11:59:18.793Z,40
2017-07-12T12:00:19.070Z,45
2017-07-12T12:01:18.150Z,45
2017-07-12T12:02:03.916Z,45
2017-07-12T12:03:03.919Z,45
2017-07-12T12:04:04.309Z,50
2017-07-12T12:05:03.988Z,55
2017-07-12T12:06:19.291Z,60
2017-07-12T12:07:04.363Z,60
2017-07-12T12:09:19.349Z,45
2017-07-12T12:10:04.428Z,45
2017-07-12T12:11:19.410Z,50
2017-07-12T12:12:19.437Z,60
2017-07-12T12:14:04.241Z,80
2017-07-12T12:15:03.634Z,90
2017-07-12T12:16:04.913Z,100
2017-07-12T12:19:04.060Z,110
2017-07-12T12:20:04.420Z,105
2017-07-12T12:21:04.765Z,105
2017-07-12T12:22:19.382Z,105
2017-07-12T12:23:04.486Z,105
2017-07-12T12:24:04.841Z,110
2017-07-12T12:25:04.545Z,110
2017-07-12T12:26:05.205Z,110
2017-07-12T12:27:19.508Z,110
2017-07-12T12:28:04.956Z,110
2017-07-12T12:29:19.896Z,110
2017-07-12T12:30:04.666Z,115
2017-07-12T12:31:19.639Z,115
2017-07-12T12:32:05.344Z,110
2017-07-12T12:33:05.395Z,110
2017-07-12T12:34:05.416Z,110
2017-07-12T12:35:04.886Z,110
2017-07-12T12:36:20.086Z,110
2017-07-12T12:37:20.099Z,110
2017-07-12T12:38:04.911Z,115
2017-07-12T12:39:05.232Z,115
2017-07-12T12:40:05.297Z,110
2017-07-12T12:41:05.596Z,105
2017-07-12T12:42:04.688Z,100
2017-07-12T12:43:19.948Z,100
2017-07-12T12:44:05.374Z,100
2017-07-12T12:45:05.416Z,95
2017-07-12T12:46:05.493Z,90
2017-07-12T12:47:20.371Z,95
2017-07-12T12:48:20.424Z,95
2017-07-12T12:49:05.500Z,95
2017-07-12T12:51:20.181Z,95
2017-07-12T12:52:05.591Z,95
2017-07-12T12:53:05.964Z,95
2017-07-12T12:54:20.562Z,85
2017-07-12T12:55:05.708Z,80
2017-07-12T12:56:05.696Z,75
2017-07-12T12:57:20.030Z,75
2017-07-12T12:58:20.367Z,75
2017-07-12T12:59:05.476Z,75
2017-07-12T13:00:06.153Z,70
2017-07-12T13:01:05.514Z,70
2017-07-12T13:02:20.491Z,60
2017-07-12T13:03:05.566Z,55
2017-07-12T13:04:06.245Z,55
2017-07-12T13:05:05.633Z,55
2017-07-12T13:06:05.678Z,50
2017-07-12T13:07:06.020Z,55
2017-07-12T13:08:06.027Z,55
2017-07-12T13:09:06.143Z,50
2017-07-12T13:10:05.776Z,50
2017-07-12T13:11:06.124Z,50
2017-07-12T13:12:05.834Z,55
2017-07-12T13:13:05.846Z,55
2017-07-12T13:14:06.221Z,60
2017-07-12T13:15:06.226Z,60
2017-07-12T13:16:06.577Z,60
2017-07-12T13:17:06.267Z,55
2017-07-12T13:18:06.637Z,55
2017-07-12T13:19:06.324Z,50
2017-07-12T13:20:06.680Z,50
2017-07-12T13:21:06.697Z,50
2017-07-12T13:23:20.715Z,50
2017-07-12T13:24:05.842Z,55
2017-07-12T13:25:06.489Z,60
2017-07-12T13:26:06.563Z,65
2017-07-12T13:27:21.494Z,75
2017-07-12T13:28:06.906Z,80
2017-07-12T13:29:06.906Z,85
2017-07-12T13:30:21.214Z,90
2017-07-12T13:31:06.983Z,90
2017-07-12T13:32:06.358Z,90
2017-07-12T13:33:06.399Z,95
2017-07-12T13:34:06.711Z,95
2017-07-12T13:35:06.768Z,90
2017-07-12T13:36:21.390Z,90
2017-07-12T13:37:06.802Z,85
2017-07-12T13:38:06.857Z,80
2017-07-12T13:39:06.866Z,70
2017-07-12T13:40:06.896Z,60
2017-07-12T13:41:07.231Z,55
2017-07-12T13:42:21.553Z,50
2017-07-12T13:43:06.988Z,45
2017-07-12T13:44:06.675Z,45
2017-07-12T13:45:21.641Z,45
2017-07-12T13:46:21.650Z,45
2017-07-12T13:47:07.084Z,50
2017-07-12T13:48:07.096Z,50
2017-07-12T13:49:06.508Z,50
2017-07-12T13:50:06.535Z,55
2017-07-12T13:51:06.544Z,55
2017-07-12T13:52:07.210Z,55
2017-07-12T13:53:07.223Z,55
2017-07-12T13:54:06.958Z,60
2017-07-12T13:55:21.882Z,50
2017-07-12T13:56:22.252Z,45
2017-07-12T13:57:21.948Z,45
2017-07-12T13:59:07.478Z,55
2017-07-12T14:00:07.719Z,55
2017-07-12T14:01:07.452Z,70
2017-07-12T14:02:22.400Z,85
2017-07-12T14:03:06.880Z,90
2017-07-12T14:04:07.532Z,95
2017-07-12T14:05:07.544Z,100
2017-07-12T14:06:07.925Z,105
2017-07-12T14:08:07.320Z,105
2017-07-12T14:09:22.264Z,105
2017-07-12T14:10:08.005Z,105
2017-07-12T14:12:07.746Z,120
2017-07-12T14:13:08.140Z,125
2017-07-12T14:14:22.407Z,120
2017-07-12T14:15:07.184Z,120
2017-07-12T14:16:07.537Z,115
2017-07-12T14:17:07.549Z,115
2017-07-12T14:19:08.258Z,110
2017-07-12T14:20:07.961Z,100
2017-07-12T14:22:07.365Z,110
2017-07-12T14:23:08.053Z,115
2017-07-12T14:24:07.414Z,110
2017-07-12T14:25:08.406Z,105
2017-07-12T14:26:08.429Z,100
2017-07-12T14:27:23.136Z,100
2017-07-12T14:28:08.176Z,100
2017-07-12T14:29:08.500Z,95
2017-07-12T14:30:07.902Z,90
2017-07-12T14:31:07.632Z,90
2017-07-12T14:32:23.182Z,100
2017-07-12T14:33:37.831Z,100
2017-07-12T14:35:08.355Z,95
2017-07-12T14:36:08.753Z,80
2017-07-12T14:37:08.424Z,70
2017-07-12T14:38:08.454Z,55
2017-07-12T14:39:23.381Z,55
2017-07-12T14:40:08.500Z,50
2017-07-12T14:41:08.199Z,45
2017-07-12T14:43:08.312Z,40
2017-07-12T14:44:08.296Z,40
2017-07-12T14:45:08.648Z,35
2017-07-12T14:46:08.322Z,35
2017-07-12T14:47:23.281Z,35
2017-07-12T14:48:08.055Z,40
2017-07-12T14:49:23.322Z,50
2017-07-12T14:50:09.067Z,55
2017-07-12T14:51:09.098Z,55
2017-07-12T14:52:08.818Z,55
2017-07-12T14:53:23.755Z,55
2017-07-12T14:54:23.789Z,50
2017-07-12T14:55:09.194Z,45
2017-07-12T14:56:08.922Z,40
2017-07-12T14:57:09.253Z,45
2017-07-12T14:58:22.939Z,50
2017-07-12T14:59:08.664Z,55
2017-07-12T15:00:08.385Z,60
2017-07-12T15:01:08.720Z,60
2017-07-12T15:02:09.092Z,60
2017-07-12T15:03:08.773Z,65
2017-07-12T15:04:09.131Z,65
2017-07-12T15:05:24.047Z,65
2017-07-12T15:06:09.186Z,65
2017-07-12T15:07:09.513Z,60
2017-07-12T15:08:09.244Z,50
2017-07-12T15:09:08.629Z,35
2017-07-12T15:11:24.222Z,30
2017-07-12T15:12:09.649Z,25
2017-07-12T15:13:09.362Z,25
2017-07-12T15:14:09.713Z,20
2017-07-12T15:15:09.721Z,25
2017-07-12T15:16:09.755Z,30
2017-07-12T15:17:24.058Z,25
2017-07-12T15:19:24.129Z,25
2017-07-12T15:20:09.202Z,30
2017-07-12T15:21:24.183Z,35
2017-07-12T15:22:09.574Z,35
2017-07-12T15:23:08.980Z,30
2017-07-12T15:24:09.326Z,30
2017-07-12T15:25:09.369Z,30